sensor_id;sensor_type;location;lat;lon;timestamp;pressure;altitude;pressure_sealevel;temperature;humidity
21431;BME280;10876;49.038;10.608;2023-04-26T00:01:09;98635.97;;;4.89;100.00
21431;BME280;10876;49.038;10.608;2023-04-26T00:03:36;98633.25;;;4.89;100.00
21431;BME280;10876;49.038;10.608;2023-04-26T00:06:05;98634.31;;;4.93;100.00
21431;BME280;10876;49.038;10.608;2023-04-26T00:08:35;98635.13;;;4.94;100.00
21431;BME280;10876;49.038;10.608;2023-04-26T00:11:02;98639.44;;;4.95;100.00
21431;BME280;10876;49.038;10.608;2023-04-26T00:13:29;98633.25;;;4.89;100.00
21431;BME280;10876;49.038;10.608;2023-04-26T00:15:57;98633.25;;;4.89;100.00
21431;BME280;10876;49.038;10.608;2023-04-26T00:18:24;98637.59;;;4.85;100.00
21431;BME280;10876;49.038;10.608;2023-04-26T00:20:51;98641.94;;;4.81;100.00
21431;BME280;10876;49.038;10.608;2023-04-26T00:23:18;98643.03;;;4.80;100.00
21431;BME280;10876;49.038;10.608;2023-04-26T00:25:46;98644.66;;;4.76;100.00
21431;BME280;10876;49.038;10.608;2023-04-26T00:28:13;98643.56;;;4.72;100.00
21431;BME280;10876;49.038;10.608;2023-04-26T00:30:40;98643.06;;;4.65;100.00
21431;BME280;10876;49.038;10.608;2023-04-26T00:33:12;98652.56;;;4.57;100.00
21431;BME280;10876;49.038;10.608;2023-04-26T00:35:39;98655.56;;;4.35;100.00
21431;BME280;10876;49.038;10.608;2023-04-26T00:38:06;98645.78;;;4.09;100.00
21431;BME280;10876;49.038;10.608;2023-04-26T00:40:33;98637.34;;;3.59;100.00
21431;BME280;10876;49.038;10.608;2023-04-26T00:43:02;98639.22;;;3.53;100.00
21431;BME280;10876;49.038;10.608;2023-04-26T00:45:29;98648.66;;;3.41;100.00
21431;BME280;10876;49.038;10.608;2023-04-26T00:47:57;98647.25;;;3.28;100.00
21431;BME280;10876;49.038;10.608;2023-04-26T00:50:26;98656.44;;;3.22;100.00
21431;BME280;10876;49.038;10.608;2023-04-26T00:52:54;98663.56;;;3.48;100.00
21431;BME280;10876;49.038;10.608;2023-04-26T00:55:21;98671.97;;;3.47;100.00
21431;BME280;10876;49.038;10.608;2023-04-26T00:57:48;98664.91;;;3.41;100.00
21431;BME280;10876;49.038;10.608;2023-04-26T01:00:17;98675.41;;;3.27;100.00
21431;BME280;10876;49.038;10.608;2023-04-26T01:02:44;98671.88;;;3.26;100.00
21431;BME280;10876;49.038;10.608;2023-04-26T01:05:11;98674.25;;;3.17;100.00
21431;BME280;10876;49.038;10.608;2023-04-26T01:07:39;98683.47;;;3.16;100.00
21431;BME280;10876;49.038;10.608;2023-04-26T01:10:06;98670.31;;;2.88;100.00
21431;BME280;10876;49.038;10.608;2023-04-26T01:12:36;98678.06;;;2.74;100.00
21431;BME280;10876;49.038;10.608;2023-04-26T01:15:04;98677.22;;;2.68;100.00
21431;BME280;10876;49.038;10.608;2023-04-26T01:17:33;98676.03;;;2.54;100.00
21431;BME280;10876;49.038;10.608;2023-04-26T01:20:02;98672.81;;;2.52;100.00
21431;BME280;10876;49.038;10.608;2023-04-26T01:22:33;98680.34;;;2.50;100.00
21431;BME280;10876;49.038;10.608;2023-04-26T01:25:01;98673.81;;;2.46;100.00
21431;BME280;10876;49.038;10.608;2023-04-26T01:27:32;98678.34;;;2.35;100.00
21431;BME280;10876;49.038;10.608;2023-04-26T01:29:59;98687.22;;;2.31;100.00
21431;BME280;10876;49.038;10.608;2023-04-26T01:32:29;98694.34;;;2.42;100.00
21431;BME280;10876;49.038;10.608;2023-04-26T01:34:56;98698.53;;;2.28;100.00
21431;BME280;10876;49.038;10.608;2023-04-26T01:37:23;98707.09;;;2.52;100.00
21431;BME280;10876;49.038;10.608;2023-04-26T01:39:52;98711.06;;;2.39;100.00
21431;BME280;10876;49.038;10.608;2023-04-26T01:42:19;98713.78;;;2.39;100.00
21431;BME280;10876;49.038;10.608;2023-04-26T01:44:46;98711.88;;;2.07;100.00
21431;BME280;10876;49.038;10.608;2023-04-26T01:47:13;98712.38;;;2.04;100.00
21431;BME280;10876;49.038;10.608;2023-04-26T01:49:40;98721.00;;;2.01;100.00
21431;BME280;10876;49.038;10.608;2023-04-26T01:52:07;98726.50;;;2.11;100.00
21431;BME280;10876;49.038;10.608;2023-04-26T01:54:34;98733.56;;;2.17;100.00
21431;BME280;10876;49.038;10.608;2023-04-26T01:57:03;98734.06;;;2.09;100.00
21431;BME280;10876;49.038;10.608;2023-04-26T01:59:29;98730.06;;;1.90;100.00
21431;BME280;10876;49.038;10.608;2023-04-26T02:01:56;98734.97;;;1.93;100.00
21431;BME280;10876;49.038;10.608;2023-04-26T02:04:24;98727.81;;;1.82;100.00
21431;BME280;10876;49.038;10.608;2023-04-26T02:06:51;98735.53;;;1.73;100.00
21431;BME280;10876;49.038;10.608;2023-04-26T02:09:18;98731.47;;;1.70;100.00
21431;BME280;10876;49.038;10.608;2023-04-26T02:11:45;98734.81;;;1.55;100.00
21431;BME280;10876;49.038;10.608;2023-04-26T02:14:14;98738.09;;;1.57;100.00
21431;BME280;10876;49.038;10.608;2023-04-26T02:16:41;98750.50;;;1.80;100.00
21431;BME280;10876;49.038;10.608;2023-04-26T02:19:08;98754.94;;;1.92;100.00
21431;BME280;10876;49.038;10.608;2023-04-26T02:21:49;98758.63;;;1.86;100.00
21431;BME280;10876;49.038;10.608;2023-04-26T02:24:17;98762.84;;;1.76;100.00
21431;BME280;10876;49.038;10.608;2023-04-26T02:26:44;98773.44;;;1.83;100.00
21431;BME280;10876;49.038;10.608;2023-04-26T02:29:11;98769.81;;;1.50;100.00
21431;BME280;10876;49.038;10.608;2023-04-26T02:31:39;98764.00;;;1.20;100.00
21431;BME280;10876;49.038;10.608;2023-04-26T02:34:07;98765.31;;;1.17;100.00
21431;BME280;10876;49.038;10.608;2023-04-26T02:36:34;98771.22;;;1.14;100.00
21431;BME280;10876;49.038;10.608;2023-04-26T02:39:01;98773.78;;;1.26;100.00
21431;BME280;10876;49.038;10.608;2023-04-26T02:41:30;98778.19;;;1.10;100.00
21431;BME280;10876;49.038;10.608;2023-04-26T02:43:58;98786.75;;;1.24;100.00
21431;BME280;10876;49.038;10.608;2023-04-26T02:46:25;98790.66;;;1.16;100.00
21431;BME280;10876;49.038;10.608;2023-04-26T02:48:54;98792.09;;;1.41;100.00
21431;BME280;10876;49.038;10.608;2023-04-26T02:51:21;98789.16;;;1.25;100.00
21431;BME280;10876;49.038;10.608;2023-04-26T02:53:48;98790.81;;;1.26;100.00
21431;BME280;10876;49.038;10.608;2023-04-26T02:56:15;98801.44;;;1.33;100.00
21431;BME280;10876;49.038;10.608;2023-04-26T02:58:42;98798.31;;;1.41;100.00
21431;BME280;10876;49.038;10.608;2023-04-26T03:01:09;98807.28;;;1.47;100.00
21431;BME280;10876;49.038;10.608;2023-04-26T03:03:37;98818.09;;;1.47;100.00
21431;BME280;10876;49.038;10.608;2023-04-26T03:06:06;98817.63;;;1.33;100.00
21431;BME280;10876;49.038;10.608;2023-04-26T03:08:33;98826.50;;;0.95;100.00
21431;BME280;10876;49.038;10.608;2023-04-26T03:11:12;98826.91;;;0.86;100.00
21431;BME280;10876;49.038;10.608;2023-04-26T03:13:39;98826.31;;;0.84;100.00
21431;BME280;10876;49.038;10.608;2023-04-26T03:16:06;98837.81;;;1.13;100.00
21431;BME280;10876;49.038;10.608;2023-04-26T03:18:33;98844.13;;;1.19;100.00
21431;BME280;10876;49.038;10.608;2023-04-26T03:21:00;98834.00;;;1.09;100.00
21431;BME280;10876;49.038;10.608;2023-04-26T03:23:29;98837.91;;;0.85;100.00
21431;BME280;10876;49.038;10.608;2023-04-26T03:25:56;98839.31;;;0.87;100.00
21431;BME280;10876;49.038;10.608;2023-04-26T03:28:23;98836.28;;;0.84;100.00
21431;BME280;10876;49.038;10.608;2023-04-26T03:30:50;98847.13;;;0.72;100.00
21431;BME280;10876;49.038;10.608;2023-04-26T03:33:17;98848.69;;;0.85;100.00
21431;BME280;10876;49.038;10.608;2023-04-26T03:35:44;98853.44;;;0.78;100.00
21431;BME280;10876;49.038;10.608;2023-04-26T03:38:11;98847.84;;;0.67;100.00
21431;BME280;10876;49.038;10.608;2023-04-26T03:40:40;98848.03;;;0.61;100.00
21431;BME280;10876;49.038;10.608;2023-04-26T03:43:10;98866.97;;;0.66;100.00
21431;BME280;10876;49.038;10.608;2023-04-26T03:45:37;98888.53;;;0.83;100.00
21431;BME280;10876;49.038;10.608;2023-04-26T03:48:06;98895.53;;;0.96;100.00
21431;BME280;10876;49.038;10.608;2023-04-26T03:50:33;98917.91;;;1.13;100.00
21431;BME280;10876;49.038;10.608;2023-04-26T03:53:01;98917.53;;;1.21;100.00
21431;BME280;10876;49.038;10.608;2023-04-26T03:55:27;98914.25;;;1.19;100.00
21431;BME280;10876;49.038;10.608;2023-04-26T03:57:56;98914.88;;;0.93;100.00
21431;BME280;10876;49.038;10.608;2023-04-26T04:00:23;98924.75;;;0.87;100.00
21431;BME280;10876;49.038;10.608;2023-04-26T04:02:50;98922.38;;;0.90;100.00
21431;BME280;10876;49.038;10.608;2023-04-26T04:05:17;98916.34;;;0.83;100.00
21431;BME280;10876;49.038;10.608;2023-04-26T04:07:44;98927.88;;;0.96;100.00
21431;BME280;10876;49.038;10.608;2023-04-26T04:10:11;98933.84;;;0.98;100.00
21431;BME280;10876;49.038;10.608;2023-04-26T04:12:38;98943.31;;;1.17;100.00
21431;BME280;10876;49.038;10.608;2023-04-26T04:15:08;98941.97;;;1.15;100.00
21431;BME280;10876;49.038;10.608;2023-04-26T04:17:35;98941.03;;;1.26;100.00
21431;BME280;10876;49.038;10.608;2023-04-26T04:20:02;98953.31;;;1.33;100.00
21431;BME280;10876;49.038;10.608;2023-04-26T04:22:31;98972.31;;;1.39;100.00
21431;BME280;10876;49.038;10.608;2023-04-26T06:37:15;98707.13;;;10.13;100.00
21431;BME280;10876;49.038;10.608;2023-04-26T06:39:42;98689.16;;;9.71;100.00
21431;BME280;10876;49.038;10.608;2023-04-26T06:42:09;98687.88;;;10.05;100.00
21431;BME280;10876;49.038;10.608;2023-04-26T06:44:36;98659.66;;;10.18;100.00
21431;BME280;10876;49.038;10.608;2023-04-26T06:47:03;98644.97;;;10.50;100.00
21431;BME280;10876;49.038;10.608;2023-04-26T06:49:33;98651.94;;;10.20;100.00
21431;BME280;10876;49.038;10.608;2023-04-26T06:52:00;98648.44;;;10.65;100.00
21431;BME280;10876;49.038;10.608;2023-04-26T06:54:29;98663.50;;;10.76;100.00
21431;BME280;10876;49.038;10.608;2023-04-26T06:56:56;98674.63;;;10.79;100.00
21431;BME280;10876;49.038;10.608;2023-04-26T06:59:23;98691.44;;;11.26;100.00
21431;BME280;10876;49.038;10.608;2023-04-26T07:01:50;98705.22;;;11.44;100.00
21431;BME280;10876;49.038;10.608;2023-04-26T07:04:17;98716.50;;;11.34;100.00
21431;BME280;10876;49.038;10.608;2023-04-26T07:06:45;98737.81;;;11.37;100.00
21431;BME280;10876;49.038;10.608;2023-04-26T07:09:12;98727.63;;;11.37;100.00
21431;BME280;10876;49.038;10.608;2023-04-26T07:11:40;98750.28;;;11.20;100.00
21431;BME280;10876;49.038;10.608;2023-04-26T07:14:09;98768.34;;;11.21;100.00
21431;BME280;10876;49.038;10.608;2023-04-26T07:16:36;98793.81;;;11.84;100.00
21431;BME280;10876;49.038;10.608;2023-04-26T07:19:03;98830.44;;;11.17;100.00
21431;BME280;10876;49.038;10.608;2023-04-26T07:21:30;98845.84;;;11.36;100.00
21431;BME280;10876;49.038;10.608;2023-04-26T07:23:57;98892.53;;;10.49;100.00
21431;BME280;10876;49.038;10.608;2023-04-26T07:26:25;98898.25;;;10.75;100.00
21431;BME280;10876;49.038;10.608;2023-04-26T07:28:54;98916.03;;;11.14;100.00
21431;BME280;10876;49.038;10.608;2023-04-26T07:31:21;98924.22;;;10.92;100.00
21431;BME280;10876;49.038;10.608;2023-04-26T07:33:48;98931.63;;;10.91;100.00
21431;BME280;10876;49.038;10.608;2023-04-26T07:36:15;98930.09;;;10.99;100.00
21431;BME280;10876;49.038;10.608;2023-04-26T07:38:42;98941.16;;;11.30;100.00
21431;BME280;10876;49.038;10.608;2023-04-26T07:41:09;98953.31;;;11.38;100.00
21431;BME280;10876;49.038;10.608;2023-04-26T07:43:37;98954.19;;;11.47;100.00
21431;BME280;10876;49.038;10.608;2023-04-26T07:46:06;98957.94;;;11.51;100.00
21431;BME280;10876;49.038;10.608;2023-04-26T07:48:33;98970.25;;;11.54;100.00
21431;BME280;10876;49.038;10.608;2023-04-26T07:51:06;98966.38;;;11.18;100.00
21431;BME280;10876;49.038;10.608;2023-04-26T07:53:33;98982.09;;;10.76;100.00
21431;BME280;10876;49.038;10.608;2023-04-26T07:56:02;98973.63;;;11.00;100.00
21431;BME280;10876;49.038;10.608;2023-04-26T07:58:29;98980.44;;;11.39;100.00
21431;BME280;10876;49.038;10.608;2023-04-26T08:00:57;98979.31;;;11.99;100.00
21431;BME280;10876;49.038;10.608;2023-04-26T08:03:25;98988.69;;;11.84;100.00
21431;BME280;10876;49.038;10.608;2023-04-26T08:05:53;98994.50;;;11.60;100.00
21431;BME280;10876;49.038;10.608;2023-04-26T08:08:20;98994.84;;;11.09;100.00
21431;BME280;10876;49.038;10.608;2023-04-26T08:10:47;98989.84;;;11.47;100.00
21431;BME280;10876;49.038;10.608;2023-04-26T08:13:14;98986.16;;;11.65;100.00
21431;BME280;10876;49.038;10.608;2023-04-26T08:15:41;98975.78;;;12.38;100.00
21431;BME280;10876;49.038;10.608;2023-04-26T08:18:08;99002.00;;;12.93;100.00
21431;BME280;10876;49.038;10.608;2023-04-26T08:20:36;99020.88;;;12.77;100.00
21431;BME280;10876;49.038;10.608;2023-04-26T08:23:03;99002.53;;;12.55;100.00
21431;BME280;10876;49.038;10.608;2023-04-26T08:25:30;98977.22;;;11.82;100.00
21431;BME280;10876;49.038;10.608;2023-04-26T08:27:59;98989.03;;;12.05;100.00
21431;BME280;10876;49.038;10.608;2023-04-26T08:30:26;98997.00;;;11.34;100.00
21431;BME280;10876;49.038;10.608;2023-04-26T08:32:54;99000.19;;;12.40;100.00
21431;BME280;10876;49.038;10.608;2023-04-26T08:35:21;98987.88;;;12.29;100.00
21431;BME280;10876;49.038;10.608;2023-04-26T08:37:49;98978.13;;;12.23;100.00
21431;BME280;10876;49.038;10.608;2023-04-26T08:40:21;98984.00;;;13.62;100.00
21431;BME280;10876;49.038;10.608;2023-04-26T08:42:49;98969.69;;;13.07;100.00
21431;BME280;10876;49.038;10.608;2023-04-26T08:45:17;98964.50;;;12.97;100.00
21431;BME280;10876;49.038;10.608;2023-04-26T08:47:47;98969.13;;;13.45;100.00
21431;BME280;10876;49.038;10.608;2023-04-26T08:50:15;98969.91;;;13.55;100.00
21431;BME280;10876;49.038;10.608;2023-04-26T08:52:42;98961.81;;;13.41;100.00
21431;BME280;10876;49.038;10.608;2023-04-26T08:55:12;98961.63;;;13.89;100.00
21431;BME280;10876;49.038;10.608;2023-04-26T08:57:41;98968.63;;;13.26;100.00
21431;BME280;10876;49.038;10.608;2023-04-26T09:00:09;98987.81;;;13.08;100.00
21431;BME280;10876;49.038;10.608;2023-04-26T09:02:39;98972.16;;;13.70;100.00
21431;BME280;10876;49.038;10.608;2023-04-26T09:05:08;98953.72;;;13.27;100.00
21431;BME280;10876;49.038;10.608;2023-04-26T09:07:39;98956.19;;;12.71;100.00
21431;BME280;10876;49.038;10.608;2023-04-26T09:10:08;98944.72;;;11.98;100.00
21431;BME280;10876;49.038;10.608;2023-04-26T09:12:37;98958.16;;;12.31;100.00
21431;BME280;10876;49.038;10.608;2023-04-26T09:15:05;98982.13;;;11.49;100.00
21431;BME280;10876;49.038;10.608;2023-04-26T09:17:33;98982.91;;;10.77;100.00
21431;BME280;10876;49.038;10.608;2023-04-26T09:20:16;98987.75;;;11.08;100.00
21431;BME280;10876;49.038;10.608;2023-04-26T09:22:44;98996.88;;;11.98;100.00
21431;BME280;10876;49.038;10.608;2023-04-26T09:25:12;98988.78;;;13.13;100.00
21431;BME280;10876;49.038;10.608;2023-04-26T09:27:42;98983.31;;;14.00;100.00
21431;BME280;10876;49.038;10.608;2023-04-26T09:30:10;98959.03;;;13.84;100.00
21431;BME280;10876;49.038;10.608;2023-04-26T09:32:46;98956.47;;;13.27;100.00
21431;BME280;10876;49.038;10.608;2023-04-26T09:35:25;98958.91;;;12.62;100.00
21431;BME280;10876;49.038;10.608;2023-04-26T09:37:54;98964.56;;;13.67;100.00
21431;BME280;10876;49.038;10.608;2023-04-26T09:40:24;98963.91;;;13.52;100.00
21431;BME280;10876;49.038;10.608;2023-04-26T09:43:04;98952.59;;;13.28;100.00
21431;BME280;10876;49.038;10.608;2023-04-26T09:45:43;98949.97;;;13.75;100.00
21431;BME280;10876;49.038;10.608;2023-04-26T09:48:15;98917.38;;;14.41;100.00
21431;BME280;10876;49.038;10.608;2023-04-26T09:50:42;98900.66;;;14.47;100.00
21431;BME280;10876;49.038;10.608;2023-04-26T09:53:10;98913.06;;;13.59;100.00
21431;BME280;10876;49.038;10.608;2023-04-26T09:55:37;98910.44;;;12.84;100.00
21431;BME280;10876;49.038;10.608;2023-04-26T09:58:09;98917.91;;;13.79;100.00
21431;BME280;10876;49.038;10.608;2023-04-26T10:00:37;98899.94;;;13.73;100.00
21431;BME280;10876;49.038;10.608;2023-04-26T10:03:07;98903.97;;;12.71;100.00
21431;BME280;10876;49.038;10.608;2023-04-26T10:05:35;98911.44;;;11.91;100.00
21431;BME280;10876;49.038;10.608;2023-04-26T10:08:05;98936.94;;;11.10;100.00
21431;BME280;10876;49.038;10.608;2023-04-26T10:10:33;98945.22;;;11.33;100.00
21431;BME280;10876;49.038;10.608;2023-04-26T10:13:00;98954.94;;;11.39;100.00
21431;BME280;10876;49.038;10.608;2023-04-26T10:15:29;98951.97;;;11.71;100.00
21431;BME280;10876;49.038;10.608;2023-04-26T10:17:56;98950.94;;;11.22;100.00
21431;BME280;10876;49.038;10.608;2023-04-26T10:20:26;98958.72;;;10.93;100.00
21431;BME280;10876;49.038;10.608;2023-04-26T10:22:56;98953.22;;;10.93;100.00
21431;BME280;10876;49.038;10.608;2023-04-26T10:25:35;98931.25;;;11.20;100.00
21431;BME280;10876;49.038;10.608;2023-04-26T10:28:02;98916.19;;;10.81;100.00
21431;BME280;10876;49.038;10.608;2023-04-26T10:30:30;98924.41;;;10.95;100.00
21431;BME280;10876;49.038;10.608;2023-04-26T10:33:15;98933.22;;;11.06;100.00
21431;BME280;10876;49.038;10.608;2023-04-26T10:36:16;98927.09;;;11.45;100.00
21431;BME280;10876;49.038;10.608;2023-04-26T10:39:19;98912.97;;;12.54;100.00
21431;BME280;10876;49.038;10.608;2023-04-26T10:41:46;98889.63;;;13.00;100.00
21431;BME280;10876;49.038;10.608;2023-04-26T10:44:38;98900.03;;;12.06;100.00
21431;BME280;10876;49.038;10.608;2023-04-26T10:47:20;98914.56;;;11.31;100.00
21431;BME280;10876;49.038;10.608;2023-04-26T10:49:47;98915.38;;;11.31;100.00
21431;BME280;10876;49.038;10.608;2023-04-26T10:52:15;98920.66;;;10.91;100.00
21431;BME280;10876;49.038;10.608;2023-04-26T10:54:49;98909.78;;;11.00;100.00
21431;BME280;10876;49.038;10.608;2023-04-26T10:57:16;98901.25;;;12.23;100.00
21431;BME280;10876;49.038;10.608;2023-04-26T11:00:15;98893.66;;;13.12;100.00
21431;BME280;10876;49.038;10.608;2023-04-26T11:02:52;98861.63;;;13.33;100.00
21431;BME280;10876;49.038;10.608;2023-04-26T11:05:36;98872.31;;;13.43;100.00
21431;BME280;10876;49.038;10.608;2023-04-26T11:08:13;98859.91;;;13.84;100.00
21431;BME280;10876;49.038;10.608;2023-04-26T11:10:41;98870.03;;;12.93;100.00
21431;BME280;10876;49.038;10.608;2023-04-26T11:13:08;98864.16;;;12.51;100.00
21431;BME280;10876;49.038;10.608;2023-04-26T11:15:35;98865.34;;;13.20;100.00
21431;BME280;10876;49.038;10.608;2023-04-26T11:18:03;98855.81;;;13.08;100.00
21431;BME280;10876;49.038;10.608;2023-04-26T11:20:31;98864.84;;;12.08;100.00
21431;BME280;10876;49.038;10.608;2023-04-26T11:22:59;98871.03;;;12.23;100.00
21431;BME280;10876;49.038;10.608;2023-04-26T11:25:27;98875.56;;;13.11;100.00
21431;BME280;10876;49.038;10.608;2023-04-26T11:27:58;98866.00;;;12.82;100.00
21431;BME280;10876;49.038;10.608;2023-04-26T11:30:27;98857.41;;;12.75;100.00
21431;BME280;10876;49.038;10.608;2023-04-26T11:32:55;98845.25;;;12.67;100.00
21431;BME280;10876;49.038;10.608;2023-04-26T11:35:24;98854.91;;;12.38;100.00
21431;BME280;10876;49.038;10.608;2023-04-26T11:37:52;98869.19;;;12.09;100.00
21431;BME280;10876;49.038;10.608;2023-04-26T11:40:18;98881.56;;;12.38;100.00
21431;BME280;10876;49.038;10.608;2023-04-26T11:42:46;98867.13;;;12.15;100.00
21431;BME280;10876;49.038;10.608;2023-04-26T11:45:16;98878.03;;;11.98;100.00
21431;BME280;10876;49.038;10.608;2023-04-26T11:47:44;98880.97;;;11.79;100.00
21431;BME280;10876;49.038;10.608;2023-04-26T11:50:11;98892.44;;;12.03;100.00
21431;BME280;10876;49.038;10.608;2023-04-26T11:52:40;98893.81;;;12.23;100.00
21431;BME280;10876;49.038;10.608;2023-04-26T11:55:08;98880.38;;;12.22;100.00
21431;BME280;10876;49.038;10.608;2023-04-26T11:57:35;98868.75;;;11.85;100.00
21431;BME280;10876;49.038;10.608;2023-04-26T12:00:09;98866.41;;;11.69;100.00
21431;BME280;10876;49.038;10.608;2023-04-26T12:02:43;98866.47;;;12.09;100.00
21431;BME280;10876;49.038;10.608;2023-04-26T12:05:20;98858.97;;;12.41;100.00
21431;BME280;10876;49.038;10.608;2023-04-26T12:07:53;98856.44;;;12.05;100.00
21431;BME280;10876;49.038;10.608;2023-04-26T12:10:23;98860.31;;;12.87;100.00
21431;BME280;10876;49.038;10.608;2023-04-26T12:12:52;98841.84;;;13.57;100.00
21431;BME280;10876;49.038;10.608;2023-04-26T12:15:22;98834.41;;;13.58;100.00
21431;BME280;10876;49.038;10.608;2023-04-26T12:17:53;98829.53;;;12.42;100.00
21431;BME280;10876;49.038;10.608;2023-04-26T12:20:31;98829.41;;;12.64;100.00
21431;BME280;10876;49.038;10.608;2023-04-26T12:23:04;98818.13;;;12.92;100.00
21431;BME280;10876;49.038;10.608;2023-04-26T12:25:33;98819.25;;;13.17;100.00
21431;BME280;10876;49.038;10.608;2023-04-26T12:28:01;98811.47;;;13.01;100.00
21431;BME280;10876;49.038;10.608;2023-04-26T12:30:29;98804.69;;;12.55;100.00
21431;BME280;10876;49.038;10.608;2023-04-26T12:32:56;98817.91;;;12.36;100.00
21431;BME280;10876;49.038;10.608;2023-04-26T12:35:23;98813.03;;;12.33;100.00
21431;BME280;10876;49.038;10.608;2023-04-26T12:37:51;98808.09;;;12.78;100.00
21431;BME280;10876;49.038;10.608;2023-04-26T12:40:20;98805.03;;;12.71;100.00
21431;BME280;10876;49.038;10.608;2023-04-26T12:42:48;98797.53;;;13.24;100.00
21431;BME280;10876;49.038;10.608;2023-04-26T12:45:15;98793.38;;;13.00;100.00
21431;BME280;10876;49.038;10.608;2023-04-26T12:47:44;98794.84;;;12.98;100.00
21431;BME280;10876;49.038;10.608;2023-04-26T12:50:11;98811.16;;;12.59;100.00
21431;BME280;10876;49.038;10.608;2023-04-26T12:52:40;98799.38;;;12.94;100.00
21431;BME280;10876;49.038;10.608;2023-04-26T12:55:09;98787.06;;;13.00;100.00
21431;BME280;10876;49.038;10.608;2023-04-26T12:57:39;98794.50;;;12.73;100.00
21431;BME280;10876;49.038;10.608;2023-04-26T13:00:09;98790.78;;;12.69;100.00
21431;BME280;10876;49.038;10.608;2023-04-26T13:02:36;98792.41;;;12.79;100.00
21431;BME280;10876;49.038;10.608;2023-04-26T13:05:04;98789.50;;;12.67;100.00
21431;BME280;10876;49.038;10.608;2023-04-26T13:07:31;98783.03;;;12.71;100.00
21431;BME280;10876;49.038;10.608;2023-04-26T13:09:59;98802.44;;;12.75;100.00
21431;BME280;10876;49.038;10.608;2023-04-26T13:12:26;98809.06;;;12.48;100.00
21431;BME280;10876;49.038;10.608;2023-04-26T13:14:54;98813.72;;;12.47;100.00
21431;BME280;10876;49.038;10.608;2023-04-26T13:17:23;98818.78;;;12.62;100.00
21431;BME280;10876;49.038;10.608;2023-04-26T13:19:51;98820.38;;;12.90;100.00
21431;BME280;10876;49.038;10.608;2023-04-26T13:22:19;98819.44;;;12.94;100.00
21431;BME280;10876;49.038;10.608;2023-04-26T13:24:46;98824.28;;;12.80;100.00
21431;BME280;10876;49.038;10.608;2023-04-26T13:27:13;98814.56;;;12.65;100.00
21431;BME280;10876;49.038;10.608;2023-04-26T13:29:40;98825.72;;;12.86;100.00
21431;BME280;10876;49.038;10.608;2023-04-26T13:32:08;98819.72;;;12.84;100.00
21431;BME280;10876;49.038;10.608;2023-04-26T13:34:35;98822.00;;;12.99;100.00
21431;BME280;10876;49.038;10.608;2023-04-26T13:37:04;98816.97;;;12.49;100.00
21431;BME280;10876;49.038;10.608;2023-04-26T13:39:31;98821.69;;;12.83;100.00
21431;BME280;10876;49.038;10.608;2023-04-26T13:41:58;98826.34;;;13.18;100.00
21431;BME280;10876;49.038;10.608;2023-04-26T13:44:26;98813.72;;;12.47;100.00
21431;BME280;10876;49.038;10.608;2023-04-26T13:46:54;98826.47;;;12.34;100.00
21431;BME280;10876;49.038;10.608;2023-04-26T13:49:23;98823.13;;;12.81;100.00
21431;BME280;10876;49.038;10.608;2023-04-26T13:51:51;98817.31;;;13.08;100.00
21431;BME280;10876;49.038;10.608;2023-04-26T13:54:19;98811.81;;;13.35;100.00
21431;BME280;10876;49.038;10.608;2023-04-26T13:56:47;98803.88;;;12.81;100.00
21431;BME280;10876;49.038;10.608;2023-04-26T13:59:14;98798.25;;;12.86;100.00
21431;BME280;10876;49.038;10.608;2023-04-26T14:01:42;98810.81;;;13.22;100.00
21431;BME280;10876;49.038;10.608;2023-04-26T14:04:09;98799.13;;;13.60;100.00
21431;BME280;10876;49.038;10.608;2023-04-26T14:06:37;98790.63;;;13.82;100.00
21431;BME280;10876;49.038;10.608;2023-04-26T14:09:04;98774.25;;;13.30;100.00
21431;BME280;10876;49.038;10.608;2023-04-26T14:11:31;98794.00;;;13.32;100.00
21431;BME280;10876;49.038;10.608;2023-04-26T14:13:58;98797.25;;;13.17;100.00
21431;BME280;10876;49.038;10.608;2023-04-26T14:16:25;98790.06;;;13.50;100.00
21431;BME280;10876;49.038;10.608;2023-04-26T14:18:52;98788.63;;;13.91;100.00
21431;BME280;10876;49.038;10.608;2023-04-26T14:21:19;98797.34;;;13.55;100.00
21431;BME280;10876;49.038;10.608;2023-04-26T14:23:48;98800.94;;;13.38;100.00
21431;BME280;10876;49.038;10.608;2023-04-26T14:26:15;98806.00;;;12.84;100.00
21431;BME280;10876;49.038;10.608;2023-04-26T14:28:42;98796.63;;;13.02;100.00
21431;BME280;10876;49.038;10.608;2023-04-26T14:31:09;98793.00;;;13.45;100.00
21431;BME280;10876;49.038;10.608;2023-04-26T14:33:37;98795.59;;;13.89;100.00
21431;BME280;10876;49.038;10.608;2023-04-26T14:36:05;98778.19;;;13.67;100.00
21431;BME280;10876;49.038;10.608;2023-04-26T14:38:32;98784.88;;;13.58;100.00
21431;BME280;10876;49.038;10.608;2023-04-26T14:41:01;98787.00;;;13.90;100.00
21431;BME280;10876;49.038;10.608;2023-04-26T14:43:28;98780.41;;;13.27;100.00
21431;BME280;10876;49.038;10.608;2023-04-26T14:45:54;98785.25;;;13.13;100.00
21431;BME280;10876;49.038;10.608;2023-04-26T14:48:22;98782.84;;;13.28;100.00
21431;BME280;10876;49.038;10.608;2023-04-26T14:50:49;98788.16;;;13.42;100.00
21431;BME280;10876;49.038;10.608;2023-04-26T14:53:16;98775.38;;;13.38;100.00
21431;BME280;10876;49.038;10.608;2023-04-26T14:55:42;98788.03;;;13.77;100.00
21431;BME280;10876;49.038;10.608;2023-04-26T14:58:11;98766.75;;;13.57;100.00
21431;BME280;10876;49.038;10.608;2023-04-26T15:00:38;98770.94;;;13.63;100.00
21431;BME280;10876;49.038;10.608;2023-04-26T15:03:05;98793.00;;;13.45;100.00